Air Resources Laboratory banner image
Air Resources Laboratory web site National Oceanic and Atmospheric Administration (NOAA)

va metar


KAKQ 132354Z AUTO 00000KT 10SM CLR 21/17 A3007 RMK AO2 SLP183 T02060172 10289
 20206 55001=
KBCB 132355Z AUTO 12005KT 10SM CLR 21/14 A3016 RMK AO2 T02130135 10252 20212=
KCHO 132353Z VRB04KT 10SM CLR 23/13 A3009=
KCJR 132355Z AUTO 00000KT 10SM CLR 20/15 A3009 RMK AO2 T02010146 10279 20201=
KDAA 132356Z AUTO 18003KT 10SM CLR 24/11 A3006 RMK AO2 SLP182 T02430113 10286
 20242 55000 $=
KDAN 132353Z AUTO 00000KT 10SM CLR 21/16 A3008 RMK AO2 SLP177 T02060156 10283
 20206 56006=
KDCA 132352Z 22004KT 10SM SCT180 BKN250 26/09 A3007 RMK AO2 SLP183 T02560089
 10289 20256 55001=
KEZF 132355Z AUTO 00000KT 10SM CLR 22/16 A3006 RMK AO2 T02220158 10274 20222=
KFAF 132356Z AUTO 10003KT 10SM CLR 25/14 A3006 RMK AO2 SLP183 T02460138 10287
 20246 55001 $=
KFKN 132355Z AUTO 00000KT 10SM CLR 22/17 A3008 RMK AO2 T02160166 10285 20216=
KFVX 132355Z AUTO 00000KT 10SM CLR 20/14 A3008 RMK AO2 T01960137 10281 20196=
KHEF 132356Z 17003KT 10SM CLR 21/15 A3009 RMK AO2 SLP192 6//// T02060150 10278
 20206 55000 PNO $=
KHSP 132355Z AUTO 17005KT 10SM CLR 18/10 A3020 RMK AO2 T01770098 10216 20177=
KIAD 132352Z 27003KT 10SM FEW100 BKN160 BKN250 23/11 A3008 RMK AO2 SLP184
 T02330106 10283 20233 55001=
KJYO 132355Z AUTO 28003KT 10SM CLR 23/14 A3010 RMK AO2=
KLFI 132356Z AUTO 03009KT 10SM CLR 23/14 A3006 RMK AO2 SLP186 T02260139 10273
 20226 56004 $=
KLKU 132355Z AUTO 15003KT 10SM CLR 19/17 A3010 RMK AO2 T01870168 10263 20184
 402630110=
KLNP 132355Z AUTO 00000KT 10SM BKN050 BKN065 21/16 A3015 RMK AO2=
KLYH 132354Z 00000KT 10SM CLR 22/14 A3010 RMK AO2 SLP186 T02170139 10283 20217
 56004 $=
KMKJ 132355Z AUTO 00000KT 10SM CLR 23/14 A3017 RMK AO2 T02260140 10268 20225=
KMTV 132355Z AUTO 00000KT 10SM CLR 21/18 A3012 RMK AO2 T02050179 10270 20205=
KNGU 132359Z 04008KT 10SM FEW180 SCT300 24/13 A3008 RMK AO2 SLP185 T02440128
 10272 21244 56006 $=
KNTU 132356Z 09003KT 10SM CLR 22/16 A3006 RMK AO2 SLP182 T02220161 10283 20222
 55004=
KNYG 132356Z AUTO 29005KT 10SM CLR 24/17 A3008 RMK AO2 SLP187 T02390167 10278
 20239 55002=
KOFP 132354Z AUTO 00000KT 10SM CLR 22/16 A3009 RMK AO2 SLP189 T02170156 10283
 20217 55001=
KOKV 132355Z AUTO 13003KT 10SM CLR 20/13 A3008 RMK AO2=
KOMH 132355Z AUTO 00000KT 10SM CLR 20/15 A3010 RMK AO2=
KORF 132351Z 05008KT 10SM CLR 23/13 A3006 RMK AO2 SLP180 T02330128 10272 20233
 56005 PNO $=
KPHF 132354Z AUTO 06003KT 10SM CLR 22/15 A3008 RMK AO2 SLP185 T02170150 10278
 20217 55002=
KPSK 132355Z AUTO 12005KT 10SM CLR 22/15 A3013 RMK AO2 T02200149 10257 20220=
KPTB 132355Z AUTO 00000KT 10SM CLR 20/17 A3008 RMK AO2 T01970173 10282 20197=
KRIC 132354Z 06003KT 10SM FEW065 SCT250 24/12 A3008 RMK AO2 SLP189 T02440122
 10283 20244 53000=
KROA 132354Z 14006KT 10SM FEW065 FEW200 23/12 A3011 RMK AO2 SLP188 T02330117
 10278 20233 55008=
KSFQ 132355Z AUTO 04004KT 10SM CLR 23/16 A3008 RMK AO2 T02340160 10289 20234=
KSHD 132355Z AUTO 15003KT 10SM CLR 21/12 A3012 RMK AO2 T02130121 10264 20213=
KWAL 132354Z AUTO 14003KT 10SM CLR 22/14 A3009 RMK AO2 SLP185 T02170139 10272
 20217 55000=